createdAt,value
2022-12-08T00:00:45.996Z,13.3
2022-12-08T00:05:48.111Z,14
2022-12-08T00:10:50.926Z,12
2022-12-08T00:15:53.134Z,13
2022-12-08T00:20:55.249Z,13
2022-12-08T00:25:57.208Z,13.2
2022-12-08T00:30:59.186Z,13
2022-12-08T00:36:01.165Z,12.9
2022-12-08T00:41:03.243Z,13.6
2022-12-08T00:46:05.444Z,13.4
2022-12-08T00:51:07.891Z,14.4
2022-12-08T00:56:09.881Z,15
2022-12-08T01:01:12.153Z,15.1
2022-12-08T01:06:14.234Z,15.5
2022-12-08T01:11:17.360Z,15.1
2022-12-08T01:16:19.775Z,15
2022-12-08T01:21:22.040Z,15
2022-12-08T01:26:24.030Z,14.6
2022-12-08T01:31:26.204Z,14.3
2022-12-08T01:36:28.487Z,14.4
2022-12-08T01:41:30.471Z,14.3
2022-12-08T01:46:32.503Z,14.8
2022-12-08T01:51:34.763Z,14.8
2022-12-08T01:56:36.903Z,14.4
2022-12-08T02:01:39.359Z,13.7
2022-12-08T02:06:41.852Z,12.4
2022-12-08T02:11:43.816Z,12.6
2022-12-08T02:16:45.765Z,14.3
2022-12-08T02:21:47.707Z,15.4
2022-12-08T02:26:49.744Z,15.4
2022-12-08T02:31:51.775Z,15.8
2022-12-08T02:36:53.758Z,15.8
2022-12-08T02:41:56.013Z,15.5
2022-12-08T02:46:58.007Z,15.4
2022-12-08T02:52:00.181Z,15.9
2022-12-08T02:57:02.349Z,16
2022-12-08T03:02:04.463Z,16.7
2022-12-08T03:07:06.591Z,15.8
2022-12-08T03:12:08.558Z,15.8
2022-12-08T03:17:10.474Z,16.2
2022-12-08T03:22:12.520Z,15
2022-12-08T03:27:14.482Z,14.3
2022-12-08T03:32:16.760Z,14.8
2022-12-08T03:37:18.684Z,13.8
2022-12-08T03:42:20.672Z,15.1
2022-12-08T03:47:22.628Z,16.1
2022-12-08T03:52:24.915Z,16.5
2022-12-08T03:57:27.007Z,16.9
2022-12-08T04:02:30.087Z,17.9
2022-12-08T04:07:32.461Z,19.2
2022-12-08T04:12:34.452Z,20.2
2022-12-08T04:17:36.564Z,22.6
2022-12-08T04:22:39.358Z,22.3
2022-12-08T04:27:41.841Z,19.9
2022-12-08T04:32:48.325Z,18.3
2022-12-08T04:37:50.500Z,16.7
2022-12-08T04:42:52.573Z,14.4
2022-12-08T04:47:54.821Z,14.3
2022-12-08T04:52:57.514Z,15.8
2022-12-08T04:57:59.691Z,12.8
2022-12-08T05:03:02.094Z,11.1
2022-12-08T05:08:04.649Z,10.2
2022-12-08T05:13:07.219Z,9.9
2022-12-08T05:18:09.198Z,9.6
2022-12-08T05:23:11.183Z,9
2022-12-08T05:28:42.910Z,9.1
2022-12-08T05:33:15.619Z,8.8
2022-12-08T05:38:17.590Z,9.4
2022-12-08T05:43:19.548Z,9.7
2022-12-08T05:48:21.678Z,10
2022-12-08T05:53:23.740Z,10.4
2022-12-08T05:58:25.746Z,10.5
2022-12-08T06:03:35.472Z,11
2022-12-08T06:08:37.872Z,11.6
2022-12-08T06:13:41.117Z,11.3
2022-12-08T06:18:43.480Z,11.5
2022-12-08T06:23:45.713Z,10.9
2022-12-08T06:28:47.673Z,11.6
2022-12-08T06:33:49.615Z,12.2
2022-12-08T06:38:52.082Z,11.7
2022-12-08T06:43:54.250Z,12.1
2022-12-08T06:48:56.625Z,12.8
2022-12-08T06:53:59.156Z,13.7
2022-12-08T06:59:01.425Z,13.5
2022-12-08T07:04:03.366Z,13.3
2022-12-08T07:09:05.313Z,16.1
2022-12-08T07:14:07.285Z,13.2
2022-12-08T07:19:09.335Z,13.4
2022-12-08T07:24:11.298Z,13.6
2022-12-08T07:29:15.291Z,14.1
2022-12-08T07:34:25.120Z,14.6
2022-12-08T07:39:27.216Z,13.8
2022-12-08T07:44:29.451Z,14.7
2022-12-08T07:49:31.473Z,13.8
2022-12-08T07:54:33.550Z,13.4
2022-12-08T07:59:35.846Z,13.1
2022-12-08T08:04:38.955Z,12.8
2022-12-08T08:09:41.094Z,13.1
2022-12-08T08:14:43.214Z,11.7
2022-12-08T08:19:45.160Z,11.6
2022-12-08T08:24:47.223Z,10.9
2022-12-08T08:34:52.502Z,11.6
2022-12-08T08:39:54.425Z,11.3
2022-12-08T08:44:56.554Z,10.8
2022-12-08T08:49:58.578Z,10.4
2022-12-08T08:55:00.715Z,12.2
2022-12-08T09:00:03.603Z,12.5
2022-12-08T09:05:07.442Z,12.4
2022-12-08T09:10:09.931Z,11.3
2022-12-08T09:15:12.130Z,9.9
2022-12-08T09:20:14.105Z,10
2022-12-08T09:25:16.193Z,14.1
2022-12-08T09:30:16.598Z,9.1
2022-12-08T09:35:18.592Z,9.6
2022-12-08T09:40:20.698Z,9.3
2022-12-08T09:45:22.829Z,9.4
2022-12-08T09:50:24.769Z,9.5
2022-12-08T09:55:27.135Z,9.6
2022-12-08T10:00:29.191Z,10
2022-12-08T10:05:31.346Z,9.5
2022-12-08T10:10:33.615Z,11.8
2022-12-08T10:15:34.007Z,7.5
2022-12-08T10:20:36.101Z,7
2022-12-08T10:25:38.016Z,7
2022-12-08T10:30:39.924Z,6.8
2022-12-08T10:35:41.951Z,6.8
2022-12-08T10:40:46.830Z,6.5
2022-12-08T10:45:49.034Z,6.7
2022-12-08T10:50:52.258Z,6.5
2022-12-08T10:55:54.473Z,6.4
2022-12-08T11:00:56.637Z,6.4
2022-12-08T11:05:58.759Z,6.6
2022-12-08T11:11:01.043Z,6.9
2022-12-08T11:16:03.162Z,7.4
2022-12-08T11:21:05.285Z,7.2
2022-12-08T11:26:07.246Z,7.2
2022-12-08T11:31:09.441Z,7.4
2022-12-08T11:36:11.681Z,6.5
2022-12-08T11:41:17.475Z,6.3
2022-12-08T11:46:19.772Z,6.2
2022-12-08T11:51:21.899Z,6.3
2022-12-08T11:56:24.086Z,9
2022-12-08T12:01:24.534Z,7.3
2022-12-08T12:06:56.521Z,6.5
2022-12-08T12:11:28.707Z,6.4
2022-12-08T12:16:30.970Z,7
2022-12-08T12:21:33.570Z,6.8
2022-12-08T12:26:35.429Z,6.9
2022-12-08T12:31:37.369Z,6.8
2022-12-08T12:36:39.447Z,7
2022-12-08T12:41:41.389Z,6.6
2022-12-08T12:46:43.456Z,9.9
2022-12-08T12:51:43.809Z,6.6
2022-12-08T12:56:46.064Z,6.9
2022-12-08T13:01:48.323Z,7.2
2022-12-08T13:06:50.659Z,7
2022-12-08T13:11:52.670Z,7.2
2022-12-08T13:16:54.751Z,7.5
2022-12-08T13:21:57.056Z,8.4
2022-12-08T13:26:59.317Z,8.4
2022-12-08T13:32:01.619Z,8.6
2022-12-08T13:37:03.656Z,8.2
2022-12-08T13:42:05.731Z,11.5
2022-12-08T13:47:39.162Z,7.3
2022-12-08T13:57:15.221Z,7.4
2022-12-08T14:02:18.868Z,7.8
2022-12-08T14:07:21.063Z,8.2
2022-12-08T14:12:23.122Z,8.5
2022-12-08T14:17:25.265Z,10
2022-12-08T14:22:27.231Z,9.7
2022-12-08T14:27:29.224Z,10.4
2022-12-08T14:32:31.160Z,9.9
2022-12-08T14:37:33.191Z,9.3
2022-12-08T14:42:35.186Z,9.3
2022-12-08T14:47:37.305Z,9
2022-12-08T14:52:39.311Z,8.8
2022-12-08T14:57:41.336Z,9.1
2022-12-08T15:02:43.700Z,9.6
2022-12-08T15:07:45.840Z,9.7
2022-12-08T15:12:48.061Z,9.7
2022-12-08T15:17:50.184Z,9.9
2022-12-08T15:22:52.237Z,10.6
2022-12-08T15:27:54.427Z,10.3
2022-12-08T15:32:56.500Z,9.9
2022-12-08T15:37:58.884Z,10.2
2022-12-08T15:43:01.198Z,10
2022-12-08T15:48:03.344Z,10.1
2022-12-08T15:53:05.400Z,10.2
2022-12-08T15:58:54.977Z,10.6
2022-12-08T16:04:20.154Z,10.4
2022-12-08T16:08:51.989Z,10.8
2022-12-08T16:13:57.723Z,10.2
2022-12-08T16:18:30.491Z,11
2022-12-08T16:23:44.838Z,11.2
2022-12-08T16:28:55.526Z,11.5
2022-12-08T16:33:37.781Z,11.1
2022-12-08T16:38:39.910Z,11.2
2022-12-08T16:43:42.105Z,11.3
2022-12-08T16:48:44.122Z,11.2
2022-12-08T16:53:46.247Z,11.5
2022-12-08T16:58:48.262Z,11
2022-12-08T17:04:31.285Z,11.7
2022-12-08T17:08:54.601Z,11.8
2022-12-08T17:13:56.734Z,12.1
2022-12-08T17:18:58.853Z,11.9
2022-12-08T17:24:00.934Z,12.5
2022-12-08T17:29:03.072Z,12.7
2022-12-08T17:34:06.028Z,12.6
2022-12-08T17:39:13.412Z,13.5
2022-12-08T17:44:10.354Z,15.2
2022-12-08T17:49:12.391Z,14.2
2022-12-08T17:54:14.667Z,14.4
2022-12-08T17:59:16.720Z,14.7
2022-12-08T18:04:18.797Z,14.8
2022-12-08T18:09:21.183Z,14.6
2022-12-08T18:14:23.447Z,15
2022-12-08T18:19:25.651Z,15.5
2022-12-08T18:24:27.888Z,18
2022-12-08T18:29:29.972Z,20.4
2022-12-08T18:34:32.012Z,20.1
2022-12-08T18:39:34.036Z,23.2
2022-12-08T18:44:36.065Z,19.8
2022-12-08T18:49:38.634Z,21.7
2022-12-08T18:55:07.206Z,18.6
2022-12-08T18:59:49.895Z,19.6
2022-12-08T19:04:52.127Z,17.9
2022-12-08T19:09:54.258Z,17.8
2022-12-08T19:14:58.346Z,18
2022-12-08T19:20:01.128Z,19.9
2022-12-08T19:25:03.276Z,18.1
2022-12-08T19:30:05.978Z,18.2
2022-12-08T19:35:09.124Z,18.3
2022-12-08T19:40:11.513Z,17.9
2022-12-08T19:45:13.832Z,18
2022-12-08T19:50:16.381Z,17.3
2022-12-08T19:55:17.137Z,18.4
2022-12-08T20:00:19.432Z,18.7
2022-12-08T20:05:21.775Z,20.2
2022-12-08T20:10:23.897Z,21.2
2022-12-08T20:15:26.109Z,21.6
2022-12-08T20:20:28.352Z,21.2
2022-12-08T20:25:30.436Z,21.5
2022-12-08T20:30:32.618Z,21.8
2022-12-08T20:35:34.826Z,21.7
2022-12-08T20:40:36.830Z,21.8
2022-12-08T20:45:38.887Z,53.3
2022-12-08T20:50:41.255Z,21.3
2022-12-08T20:55:43.987Z,22
2022-12-08T21:00:51.389Z,22.1
2022-12-08T21:05:55.249Z,21.8
2022-12-08T21:10:57.929Z,22.2
2022-12-08T21:16:00.924Z,22.4
2022-12-08T21:21:04.470Z,23.4
2022-12-08T21:26:07.269Z,23.2
2022-12-08T21:31:09.972Z,24.5
2022-12-08T21:36:13.183Z,24.2
2022-12-08T21:41:15.830Z,22.9
2022-12-08T21:46:18.708Z,25.9
2022-12-08T21:51:22.171Z,23.9
2022-12-08T21:56:24.647Z,24.7
2022-12-08T22:01:27.676Z,41.9
2022-12-08T22:06:31.033Z,24.2
2022-12-08T22:11:34.143Z,25.9
2022-12-08T22:16:37.569Z,25
2022-12-08T22:21:40.740Z,24.4
2022-12-08T22:26:43.286Z,24.7
2022-12-08T22:31:46.285Z,25.3
2022-12-08T22:36:49.637Z,24.7
2022-12-08T22:41:52.594Z,25.1
2022-12-08T22:46:55.104Z,23.7
2022-12-08T22:51:58.234Z,22.6
2022-12-08T22:57:00.883Z,22
2022-12-08T23:02:03.628Z,24.1
2022-12-08T23:07:05.990Z,23.2
2022-12-08T23:12:08.627Z,23
2022-12-08T23:17:11.774Z,23.5
2022-12-08T23:22:15.001Z,22.7
2022-12-08T23:27:17.436Z,22.8
2022-12-08T23:32:19.810Z,22.2
2022-12-08T23:37:22.842Z,21.9
2022-12-08T23:42:25.233Z,21.8
2022-12-08T23:47:27.782Z,21.4
2022-12-08T23:52:30.822Z,21.3
2022-12-08T23:57:33.140Z,22
